sensor_id;sensor_type;location;lat;lon;timestamp;pressure;altitude;pressure_sealevel;temperature;humidity
62124;BME280;48110;47.532;19.078;2023-02-03T00:03:05;100967.09;;;1.41;100.00
62124;BME280;48110;47.532;19.078;2023-02-03T00:06:12;100981.84;;;1.42;100.00
62124;BME280;48110;47.532;19.078;2023-02-03T00:09:17;100991.56;;;1.40;100.00
62124;BME280;48110;47.532;19.078;2023-02-03T00:12:24;100991.53;;;1.26;100.00
62124;BME280;48110;47.532;19.078;2023-02-03T00:15:30;101005.47;;;1.26;100.00
62124;BME280;48110;47.532;19.078;2023-02-03T00:18:41;101006.22;;;1.28;100.00
62124;BME280;48110;47.532;19.078;2023-02-03T00:21:49;101010.88;;;1.38;100.00
62124;BME280;48110;47.532;19.078;2023-02-03T00:24:56;101007.50;;;1.36;100.00
62124;BME280;48110;47.532;19.078;2023-02-03T00:28:09;101013.13;;;1.29;100.00
62124;BME280;48110;47.532;19.078;2023-02-03T00:31:20;101016.87;;;1.25;100.00
62124;BME280;48110;47.532;19.078;2023-02-03T00:34:33;101011.53;;;1.27;100.00
62124;BME280;48110;47.532;19.078;2023-02-03T00:37:42;101019.56;;;1.24;100.00
62124;BME280;48110;47.532;19.078;2023-02-03T00:40:51;101020.84;;;1.17;100.00
62124;BME280;48110;47.532;19.078;2023-02-03T00:44:03;101027.84;;;1.16;100.00
62124;BME280;48110;47.532;19.078;2023-02-03T00:47:12;101030.47;;;1.16;100.00
62124;BME280;48110;47.532;19.078;2023-02-03T00:50:20;101042.03;;;1.12;100.00
62124;BME280;48110;47.532;19.078;2023-02-03T00:53:28;101039.63;;;1.09;100.00
62124;BME280;48110;47.532;19.078;2023-02-03T00:56:36;101048.66;;;1.04;100.00
62124;BME280;48110;47.532;19.078;2023-02-03T00:59:44;101053.81;;;1.05;100.00
62124;BME280;48110;47.532;19.078;2023-02-03T01:02:51;101044.47;;;1.01;100.00
62124;BME280;48110;47.532;19.078;2023-02-03T01:09:35;101063.03;;;0.97;100.00
62124;BME280;48110;47.532;19.078;2023-02-03T01:12:44;101063.47;;;0.89;100.00
62124;BME280;48110;47.532;19.078;2023-02-03T01:15:53;101077.09;;;0.94;100.00
62124;BME280;48110;47.532;19.078;2023-02-03T01:19:02;101075.50;;;0.92;100.00
62124;BME280;48110;47.532;19.078;2023-02-03T01:22:12;101088.00;;;0.86;100.00
62124;BME280;48110;47.532;19.078;2023-02-03T01:25:20;101080.06;;;0.88;100.00
62124;BME280;48110;47.532;19.078;2023-02-03T01:28:28;101081.00;;;0.87;100.00
62124;BME280;48110;47.532;19.078;2023-02-03T01:31:34;101080.59;;;0.79;100.00
62124;BME280;48110;47.532;19.078;2023-02-03T01:34:43;101084.66;;;0.69;100.00
62124;BME280;48110;47.532;19.078;2023-02-03T01:37:53;101090.13;;;0.80;100.00
62124;BME280;48110;47.532;19.078;2023-02-03T01:41:01;101093.84;;;0.76;100.00
62124;BME280;48110;47.532;19.078;2023-02-03T01:44:51;101087.56;;;0.78;100.00
62124;BME280;48110;47.532;19.078;2023-02-03T01:47:45;101087.06;;;0.58;100.00
62124;BME280;48110;47.532;19.078;2023-02-03T01:50:54;101098.34;;;0.42;100.00
62124;BME280;48110;47.532;19.078;2023-02-03T01:54:02;101101.03;;;0.41;100.00
62124;BME280;48110;47.532;19.078;2023-02-03T01:57:19;101106.19;;;0.42;100.00
62124;BME280;48110;47.532;19.078;2023-02-03T02:00:29;101107.09;;;0.57;100.00
62124;BME280;48110;47.532;19.078;2023-02-03T02:03:44;101103.97;;;0.51;100.00
62124;BME280;48110;47.532;19.078;2023-02-03T02:06:55;101110.56;;;0.58;100.00
62124;BME280;48110;47.532;19.078;2023-02-03T02:10:06;101115.00;;;0.56;100.00
62124;BME280;48110;47.532;19.078;2023-02-03T02:13:17;101112.47;;;0.54;100.00
62124;BME280;48110;47.532;19.078;2023-02-03T02:16:41;101110.44;;;0.59;100.00
62124;BME280;48110;47.532;19.078;2023-02-03T02:23:38;101095.97;;;0.54;100.00
62124;BME280;48110;47.532;19.078;2023-02-03T02:27:04;101102.47;;;0.31;100.00
62124;BME280;48110;47.532;19.078;2023-02-03T02:33:42;101105.44;;;0.09;100.00
62124;BME280;48110;47.532;19.078;2023-02-03T02:39:59;101105.84;;;0.02;100.00
62124;BME280;48110;47.532;19.078;2023-02-03T02:46:18;101116.69;;;0.25;100.00
62124;BME280;48110;47.532;19.078;2023-02-03T02:49:32;101127.41;;;0.21;100.00
62124;BME280;48110;47.532;19.078;2023-02-03T02:52:43;101128.66;;;0.45;100.00
62124;BME280;48110;47.532;19.078;2023-02-03T02:56:00;101129.75;;;0.41;100.00
62124;BME280;48110;47.532;19.078;2023-02-03T02:59:16;101124.13;;;0.33;100.00
62124;BME280;48110;47.532;19.078;2023-02-03T03:02:31;101123.03;;;0.21;100.00
62124;BME280;48110;47.532;19.078;2023-02-03T03:05:39;101136.66;;;-0.05;100.00
62124;BME280;48110;47.532;19.078;2023-02-03T03:08:55;101133.19;;;-0.06;100.00
62124;BME280;48110;47.532;19.078;2023-02-03T03:12:08;101131.31;;;-0.04;100.00
62124;BME280;48110;47.532;19.078;2023-02-03T03:15:17;101134.31;;;-0.27;100.00
62124;BME280;48110;47.532;19.078;2023-02-03T03:18:34;101145.19;;;-0.19;100.00
62124;BME280;48110;47.532;19.078;2023-02-03T03:21:45;101138.31;;;-0.37;100.00
62124;BME280;48110;47.532;19.078;2023-02-03T03:24:57;101127.28;;;-0.42;100.00
62124;BME280;48110;47.532;19.078;2023-02-03T03:28:07;101131.87;;;-0.30;100.00
62124;BME280;48110;47.532;19.078;2023-02-03T03:31:16;101133.34;;;-0.24;100.00
62124;BME280;48110;47.532;19.078;2023-02-03T03:34:24;101133.78;;;-0.01;100.00
62124;BME280;48110;47.532;19.078;2023-02-03T03:37:33;101134.87;;;0.11;100.00
62124;BME280;48110;47.532;19.078;2023-02-03T03:40:46;101131.53;;;0.09;100.00
62124;BME280;48110;47.532;19.078;2023-02-03T03:43:56;101134.03;;;0.11;100.00
62124;BME280;48110;47.532;19.078;2023-02-03T03:50:21;101130.94;;;0.04;100.00
62124;BME280;48110;47.532;19.078;2023-02-03T03:53:35;101128.16;;;0.07;100.00
62124;BME280;48110;47.532;19.078;2023-02-03T03:59:56;101120.66;;;0.17;100.00
62124;BME280;48110;47.532;19.078;2023-02-03T04:03:15;101130.81;;;0.06;100.00
62124;BME280;48110;47.532;19.078;2023-02-03T04:06:23;101121.09;;;0.09;100.00
62124;BME280;48110;47.532;19.078;2023-02-03T04:09:31;101106.19;;;0.11;100.00
62124;BME280;48110;47.532;19.078;2023-02-03T04:12:42;101102.59;;;0.14;100.00
62124;BME280;48110;47.532;19.078;2023-02-03T04:15:51;101105.09;;;0.15;100.00
62124;BME280;48110;47.532;19.078;2023-02-03T04:18:59;101116.62;;;0.11;100.00
62124;BME280;48110;47.532;19.078;2023-02-03T04:22:09;101117.28;;;0.15;100.00
62124;BME280;48110;47.532;19.078;2023-02-03T04:25:20;101107.44;;;0.20;100.00
62124;BME280;48110;47.532;19.078;2023-02-03T04:28:32;101099.13;;;0.13;100.00
62124;BME280;48110;47.532;19.078;2023-02-03T04:31:43;101100.72;;;0.16;100.00
62124;BME280;48110;47.532;19.078;2023-02-03T04:34:53;101095.75;;;0.11;100.00
62124;BME280;48110;47.532;19.078;2023-02-03T04:38:04;101102.66;;;0.12;100.00
62124;BME280;48110;47.532;19.078;2023-02-03T04:41:12;101101.87;;;0.10;100.00
62124;BME280;48110;47.532;19.078;2023-02-03T04:44:21;101105.34;;;0.11;100.00
62124;BME280;48110;47.532;19.078;2023-02-03T04:47:30;101108.78;;;0.11;100.00
62124;BME280;48110;47.532;19.078;2023-02-03T04:50:40;101098.22;;;0.14;100.00
62124;BME280;48110;47.532;19.078;2023-02-03T04:53:47;101087.50;;;0.03;100.00
62124;BME280;48110;47.532;19.078;2023-02-03T04:56:57;101083.53;;;0.12;100.00
62124;BME280;48110;47.532;19.078;2023-02-03T05:00:03;101084.03;;;0.34;100.00
62124;BME280;48110;47.532;19.078;2023-02-03T05:03:12;101077.56;;;0.41;100.00
62124;BME280;48110;47.532;19.078;2023-02-03T05:06:23;101085.03;;;0.47;100.00
62124;BME280;48110;47.532;19.078;2023-02-03T05:09:30;101087.47;;;0.50;100.00
62124;BME280;48110;47.532;19.078;2023-02-03T05:12:40;101078.47;;;0.56;99.21
62124;BME280;48110;47.532;19.078;2023-02-03T05:15:49;101074.41;;;0.66;95.71
62124;BME280;48110;47.532;19.078;2023-02-03T05:18:59;101074.09;;;0.56;95.83
62124;BME280;48110;47.532;19.078;2023-02-03T05:22:11;101072.91;;;0.62;94.59
62124;BME280;48110;47.532;19.078;2023-02-03T05:25:20;101077.66;;;0.69;93.28
62124;BME280;48110;47.532;19.078;2023-02-03T05:28:27;101092.50;;;0.69;94.36
62124;BME280;48110;47.532;19.078;2023-02-03T05:31:34;101090.72;;;0.69;93.14
62124;BME280;48110;47.532;19.078;2023-02-03T05:34:42;101091.50;;;0.56;93.97
62124;BME280;48110;47.532;19.078;2023-02-03T05:37:48;101088.91;;;0.40;95.76
62124;BME280;48110;47.532;19.078;2023-02-03T05:40:56;101096.47;;;0.60;91.48
62124;BME280;48110;47.532;19.078;2023-02-03T05:44:22;101104.91;;;0.95;84.56
62124;BME280;48110;47.532;19.078;2023-02-03T05:47:29;101108.13;;;0.84;83.75
62124;BME280;48110;47.532;19.078;2023-02-03T05:50:35;101109.16;;;0.82;86.65
62124;BME280;48110;47.532;19.078;2023-02-03T05:53:42;101106.59;;;0.96;85.62
62124;BME280;48110;47.532;19.078;2023-02-03T05:56:46;101108.53;;;0.93;86.77
62124;BME280;48110;47.532;19.078;2023-02-03T05:59:59;101117.88;;;0.97;85.88
62124;BME280;48110;47.532;19.078;2023-02-03T06:03:13;101122.00;;;1.01;86.69
62124;BME280;48110;47.532;19.078;2023-02-03T06:06:19;101113.00;;;0.91;87.55
62124;BME280;48110;47.532;19.078;2023-02-03T06:09:25;101105.56;;;0.99;86.90
62124;BME280;48110;47.532;19.078;2023-02-03T06:12:30;101107.44;;;0.97;88.92
62124;BME280;48110;47.532;19.078;2023-02-03T06:15:34;101104.37;;;1.04;84.81
62124;BME280;48110;47.532;19.078;2023-02-03T06:18:40;101104.00;;;1.10;87.71
62124;BME280;48110;47.532;19.078;2023-02-03T06:21:43;101103.78;;;0.99;90.70
62124;BME280;48110;47.532;19.078;2023-02-03T06:24:46;101104.91;;;0.95;91.17
62124;BME280;48110;47.532;19.078;2023-02-03T06:27:50;101114.06;;;1.02;93.62
62124;BME280;48110;47.532;19.078;2023-02-03T06:30:54;101116.84;;;0.99;92.93
62124;BME280;48110;47.532;19.078;2023-02-03T06:33:58;101116.09;;;0.97;93.33
62124;BME280;48110;47.532;19.078;2023-02-03T06:37:07;101116.84;;;0.99;94.76
62124;BME280;48110;47.532;19.078;2023-02-03T06:40:11;101111.81;;;0.96;95.35
62124;BME280;48110;47.532;19.078;2023-02-03T06:43:15;101114.59;;;0.93;93.93
62124;BME280;48110;47.532;19.078;2023-02-03T06:46:19;101118.63;;;0.99;95.20
62124;BME280;48110;47.532;19.078;2023-02-03T06:49:25;101120.12;;;1.03;92.43
62124;BME280;48110;47.532;19.078;2023-02-03T06:52:30;101122.97;;;1.14;88.35
62124;BME280;48110;47.532;19.078;2023-02-03T06:55:35;101116.03;;;1.13;89.21
62124;BME280;48110;47.532;19.078;2023-02-03T06:58:40;101114.19;;;1.15;88.47
62124;BME280;48110;47.532;19.078;2023-02-03T07:01:45;101117.38;;;1.20;88.32
62124;BME280;48110;47.532;19.078;2023-02-03T07:04:49;101119.88;;;1.21;85.38
62124;BME280;48110;47.532;19.078;2023-02-03T07:07:54;101115.72;;;1.33;83.12
62124;BME280;48110;47.532;19.078;2023-02-03T07:10:57;101125.72;;;1.41;82.61
62124;BME280;48110;47.532;19.078;2023-02-03T07:14:02;101120.66;;;1.38;81.19
62124;BME280;48110;47.532;19.078;2023-02-03T07:17:07;101109.78;;;1.45;78.23
62124;BME280;48110;47.532;19.078;2023-02-03T07:20:13;101108.72;;;1.48;80.18
62124;BME280;48110;47.532;19.078;2023-02-03T07:23:17;101106.88;;;1.50;81.23
62124;BME280;48110;47.532;19.078;2023-02-03T07:26:22;101108.72;;;1.48;77.25
62124;BME280;48110;47.532;19.078;2023-02-03T07:29:30;101108.16;;;1.43;77.84
62124;BME280;48110;47.532;19.078;2023-02-03T07:32:36;101116.22;;;1.54;78.41
62124;BME280;48110;47.532;19.078;2023-02-03T07:35:40;101113.03;;;1.49;78.21
62124;BME280;48110;47.532;19.078;2023-02-03T07:38:45;101123.59;;;1.47;76.82
62124;BME280;48110;47.532;19.078;2023-02-03T07:41:51;101130.41;;;1.50;77.80
62124;BME280;48110;47.532;19.078;2023-02-03T07:44:56;101121.53;;;1.52;77.09
62124;BME280;48110;47.532;19.078;2023-02-03T07:48:00;101129.88;;;1.73;75.17
62124;BME280;48110;47.532;19.078;2023-02-03T07:51:03;101131.00;;;1.83;73.06
62124;BME280;48110;47.532;19.078;2023-02-03T07:54:11;101129.09;;;1.85;72.04
62124;BME280;48110;47.532;19.078;2023-02-03T07:57:16;101137.63;;;1.89;73.35
62124;BME280;48110;47.532;19.078;2023-02-03T08:00:20;101135.09;;;1.87;72.53
62124;BME280;48110;47.532;19.078;2023-02-03T08:03:25;101140.78;;;1.94;71.60
62124;BME280;48110;47.532;19.078;2023-02-03T08:06:30;101147.53;;;1.98;73.87
62124;BME280;48110;47.532;19.078;2023-02-03T08:09:35;101147.03;;;1.91;71.91
62124;BME280;48110;47.532;19.078;2023-02-03T08:12:41;101135.66;;;1.92;70.05
62124;BME280;48110;47.532;19.078;2023-02-03T08:15:49;101137.06;;;1.98;70.96
62124;BME280;48110;47.532;19.078;2023-02-03T08:18:53;101136.78;;;2.02;71.64
62124;BME280;48110;47.532;19.078;2023-02-03T08:21:58;101137.50;;;1.90;72.94
62124;BME280;48110;47.532;19.078;2023-02-03T08:25:03;101138.28;;;1.92;72.65
62124;BME280;48110;47.532;19.078;2023-02-03T08:28:08;101130.78;;;1.86;73.95
62124;BME280;48110;47.532;19.078;2023-02-03T08:31:13;101134.72;;;1.93;74.96
62124;BME280;48110;47.532;19.078;2023-02-03T08:34:18;101140.78;;;1.94;75.45
62124;BME280;48110;47.532;19.078;2023-02-03T08:37:23;101142.84;;;2.03;73.27
62124;BME280;48110;47.532;19.078;2023-02-03T08:40:27;101148.66;;;2.08;71.90
62124;BME280;48110;47.532;19.078;2023-02-03T08:43:31;101142.75;;;1.90;71.16
62124;BME280;48110;47.532;19.078;2023-02-03T08:46:35;101141.25;;;1.86;72.62
62124;BME280;48110;47.532;19.078;2023-02-03T08:49:42;101142.09;;;1.87;73.65
62124;BME280;48110;47.532;19.078;2023-02-03T08:52:46;101152.34;;;2.04;74.29
62124;BME280;48110;47.532;19.078;2023-02-03T08:55:51;101147.78;;;2.07;75.12
62124;BME280;48110;47.532;19.078;2023-02-03T08:58:58;101148.91;;;2.17;76.25
62124;BME280;48110;47.532;19.078;2023-02-03T09:02:03;101148.53;;;2.09;78.04
62124;BME280;48110;47.532;19.078;2023-02-03T09:05:10;101151.50;;;2.03;80.58
62124;BME280;48110;47.532;19.078;2023-02-03T09:08:14;101149.28;;;1.97;83.77
62124;BME280;48110;47.532;19.078;2023-02-03T09:11:19;101152.75;;;1.98;86.10
62124;BME280;48110;47.532;19.078;2023-02-03T09:14:23;101145.47;;;2.03;88.30
62124;BME280;48110;47.532;19.078;2023-02-03T09:17:29;101157.03;;;1.99;94.56
62124;BME280;48110;47.532;19.078;2023-02-03T09:20:32;101142.53;;;1.65;100.00
62124;BME280;48110;47.532;19.078;2023-02-03T09:23:37;101145.66;;;1.27;100.00
62124;BME280;48110;47.532;19.078;2023-02-03T09:26:41;101139.34;;;1.02;100.00
62124;BME280;48110;47.532;19.078;2023-02-03T09:29:46;101146.50;;;0.98;100.00
62124;BME280;48110;47.532;19.078;2023-02-03T09:32:53;101144.47;;;1.03;100.00
62124;BME280;48110;47.532;19.078;2023-02-03T09:36:00;101136.53;;;0.91;100.00
62124;BME280;48110;47.532;19.078;2023-02-03T09:39:05;101129.81;;;0.71;100.00
62124;BME280;48110;47.532;19.078;2023-02-03T09:45:36;101119.91;;;0.46;100.00
62124;BME280;48110;47.532;19.078;2023-02-03T09:48:46;101102.41;;;0.48;100.00
62124;BME280;48110;47.532;19.078;2023-02-03T09:56:01;101096.12;;;0.66;100.00
62124;BME280;48110;47.532;19.078;2023-02-03T09:58:58;101090.97;;;0.65;100.00
62124;BME280;48110;47.532;19.078;2023-02-03T10:08:51;101069.53;;;0.90;100.00
62124;BME280;48110;47.532;19.078;2023-02-03T10:18:28;101037.06;;;0.94;100.00
62124;BME280;48110;47.532;19.078;2023-02-03T10:21:40;101035.78;;;1.01;100.00
62124;BME280;48110;47.532;19.078;2023-02-03T10:24:47;101026.47;;;1.11;100.00
62124;BME280;48110;47.532;19.078;2023-02-03T10:27:54;101016.37;;;1.19;100.00
62124;BME280;48110;47.532;19.078;2023-02-03T10:31:03;100993.16;;;1.14;100.00
62124;BME280;48110;47.532;19.078;2023-02-03T10:34:11;100990.91;;;1.22;100.00
62124;BME280;48110;47.532;19.078;2023-02-03T10:37:53;100987.06;;;1.28;100.00
62124;BME280;48110;47.532;19.078;2023-02-03T10:40:50;100976.91;;;1.23;100.00
62124;BME280;48110;47.532;19.078;2023-02-03T10:43:56;100981.66;;;1.31;100.00
62124;BME280;48110;47.532;19.078;2023-02-03T10:47:01;100975.47;;;1.46;100.00
62124;BME280;48110;47.532;19.078;2023-02-03T10:50:06;100972.75;;;1.62;100.00
62124;BME280;48110;47.532;19.078;2023-02-03T10:56:22;100958.00;;;1.61;100.00
62124;BME280;48110;47.532;19.078;2023-02-03T10:59:27;100945.06;;;1.45;100.00
62124;BME280;48110;47.532;19.078;2023-02-03T11:02:32;100939.34;;;1.53;100.00
62124;BME280;48110;47.532;19.078;2023-02-03T11:05:37;100925.53;;;1.37;100.00
62124;BME280;48110;47.532;19.078;2023-02-03T11:08:43;100924.31;;;1.42;100.00
62124;BME280;48110;47.532;19.078;2023-02-03T11:11:48;100916.72;;;1.25;100.00
62124;BME280;48110;47.532;19.078;2023-02-03T11:15:06;100915.94;;;1.37;100.00
62124;BME280;48110;47.532;19.078;2023-02-03T11:18:25;100904.38;;;1.27;100.00
62124;BME280;48110;47.532;19.078;2023-02-03T11:21:30;100891.31;;;1.13;100.00
62124;BME280;48110;47.532;19.078;2023-02-03T11:24:38;100885.16;;;1.14;100.00
62124;BME280;48110;47.532;19.078;2023-02-03T11:27:42;100890.59;;;1.11;100.00
62124;BME280;48110;47.532;19.078;2023-02-03T11:30:53;100880.78;;;1.14;100.00
62124;BME280;48110;47.532;19.078;2023-02-03T11:34:02;100867.72;;;1.14;100.00
62124;BME280;48110;47.532;19.078;2023-02-03T11:37:23;100855.41;;;1.02;100.00
62124;BME280;48110;47.532;19.078;2023-02-03T11:40:30;100850.44;;;1.12;100.00
62124;BME280;48110;47.532;19.078;2023-02-03T11:43:34;100841.69;;;1.13;100.00
62124;BME280;48110;47.532;19.078;2023-02-03T11:46:38;100834.97;;;1.09;100.00
62124;BME280;48110;47.532;19.078;2023-02-03T11:52:52;100823.25;;;0.87;100.00
62124;BME280;48110;47.532;19.078;2023-02-03T12:09:01;100768.81;;;0.67;100.00
62124;BME280;48110;47.532;19.078;2023-02-03T12:15:22;100759.75;;;0.59;100.00
62124;BME280;48110;47.532;19.078;2023-02-03T12:21:55;100737.97;;;0.60;100.00
62124;BME280;48110;47.532;19.078;2023-02-03T12:31:41;100718.00;;;0.59;100.00
62124;BME280;48110;47.532;19.078;2023-02-03T12:38:40;100680.59;;;0.72;100.00
62124;BME280;48110;47.532;19.078;2023-02-03T12:41:49;100667.97;;;0.79;100.00
62124;BME280;48110;47.532;19.078;2023-02-03T12:45:02;100657.34;;;0.82;100.00
62124;BME280;48110;47.532;19.078;2023-02-03T12:48:12;100659.00;;;0.83;100.00
62124;BME280;48110;47.532;19.078;2023-02-03T12:51:37;100642.16;;;0.74;100.00
62124;BME280;48110;47.532;19.078;2023-02-03T12:54:45;100632.25;;;0.79;100.00
62124;BME280;48110;47.532;19.078;2023-02-03T13:01:05;100622.56;;;0.94;100.00
62124;BME280;48110;47.532;19.078;2023-02-03T13:07:33;100588.63;;;0.94;100.00
62124;BME280;48110;47.532;19.078;2023-02-03T13:10:47;100583.31;;;0.96;100.00
62124;BME280;48110;47.532;19.078;2023-02-03T13:13:53;100583.19;;;0.97;100.00
62124;BME280;48110;47.532;19.078;2023-02-03T13:17:21;100568.25;;;0.99;100.00
62124;BME280;48110;47.532;19.078;2023-02-03T13:20:23;100561.03;;;1.03;100.00
62124;BME280;48110;47.532;19.078;2023-02-03T13:23:28;100557.94;;;1.10;100.00
62124;BME280;48110;47.532;19.078;2023-02-03T13:26:40;100556.25;;;1.09;100.00
62124;BME280;48110;47.532;19.078;2023-02-03T13:39:31;100534.00;;;1.04;100.00
62124;BME280;48110;47.532;19.078;2023-02-03T13:42:38;100525.53;;;1.13;100.00
62124;BME280;48110;47.532;19.078;2023-02-03T13:45:44;100516.53;;;1.17;100.00
62124;BME280;48110;47.532;19.078;2023-02-03T13:48:51;100505.56;;;1.24;100.00
62124;BME280;48110;47.532;19.078;2023-02-03T13:51:56;100503.66;;;1.26;100.00
62124;BME280;48110;47.532;19.078;2023-02-03T13:55:00;100497.00;;;1.22;100.00
62124;BME280;48110;47.532;19.078;2023-02-03T13:58:05;100481.13;;;1.25;100.00
62124;BME280;48110;47.532;19.078;2023-02-03T14:01:27;100480.38;;;1.23;100.00
62124;BME280;48110;47.532;19.078;2023-02-03T14:07:38;100468.25;;;1.35;100.00
62124;BME280;48110;47.532;19.078;2023-02-03T14:10:42;100479.22;;;1.40;100.00
62124;BME280;48110;47.532;19.078;2023-02-03T14:13:44;100474.19;;;1.37;100.00
62124;BME280;48110;47.532;19.078;2023-02-03T14:16:49;100469.19;;;1.34;100.00
62124;BME280;48110;47.532;19.078;2023-02-03T14:19:57;100460.09;;;1.40;100.00
62124;BME280;48110;47.532;19.078;2023-02-03T14:26:16;100448.03;;;1.50;100.00
62124;BME280;48110;47.532;19.078;2023-02-03T14:29:26;100448.09;;;1.61;100.00
62124;BME280;48110;47.532;19.078;2023-02-03T14:36:24;100439.06;;;1.65;100.00
62124;BME280;48110;47.532;19.078;2023-02-03T14:39:33;100438.13;;;1.66;100.00
62124;BME280;48110;47.532;19.078;2023-02-03T14:46:19;100421.78;;;1.75;100.00
62124;BME280;48110;47.532;19.078;2023-02-03T14:55:51;100412.47;;;1.84;100.00
62124;BME280;48110;47.532;19.078;2023-02-03T14:59:04;100398.91;;;1.90;100.00
62124;BME280;48110;47.532;19.078;2023-02-03T15:02:25;100397.72;;;1.94;100.00
62124;BME280;48110;47.532;19.078;2023-02-03T15:11:47;100371.63;;;2.05;100.00
62124;BME280;48110;47.532;19.078;2023-02-03T15:14:52;100378.03;;;2.01;100.00
62124;BME280;48110;47.532;19.078;2023-02-03T15:18:18;100373.06;;;2.09;100.00
62124;BME280;48110;47.532;19.078;2023-02-03T15:21:26;100363.81;;;2.16;100.00
62124;BME280;48110;47.532;19.078;2023-02-03T15:24:33;100363.59;;;2.19;100.00
62124;BME280;48110;47.532;19.078;2023-02-03T15:27:39;100355.72;;;2.19;100.00
62124;BME280;48110;47.532;19.078;2023-02-03T15:30:45;100344.06;;;2.23;100.00
62124;BME280;48110;47.532;19.078;2023-02-03T15:33:51;100344.81;;;2.25;100.00
62124;BME280;48110;47.532;19.078;2023-02-03T15:36:59;100333.41;;;2.26;100.00
62124;BME280;48110;47.532;19.078;2023-02-03T15:43:18;100333.50;;;2.25;100.00
62124;BME280;48110;47.532;19.078;2023-02-03T15:46:34;100328.16;;;2.26;100.00
62124;BME280;48110;47.532;19.078;2023-02-03T15:49:41;100327.22;;;2.27;100.00
62124;BME280;48110;47.532;19.078;2023-02-03T15:52:46;100322.09;;;2.26;100.00
62124;BME280;48110;47.532;19.078;2023-02-03T15:55:55;100309.47;;;2.19;100.00
62124;BME280;48110;47.532;19.078;2023-02-03T15:59:03;100316.72;;;2.16;100.00
62124;BME280;48110;47.532;19.078;2023-02-03T16:05:29;100301.72;;;2.18;100.00
62124;BME280;48110;47.532;19.078;2023-02-03T16:08:41;100295.03;;;2.14;100.00
62124;BME280;48110;47.532;19.078;2023-02-03T16:12:03;100311.34;;;2.06;100.00
62124;BME280;48110;47.532;19.078;2023-02-03T16:15:22;100320.81;;;1.96;100.00
62124;BME280;48110;47.532;19.078;2023-02-03T16:18:31;100313.16;;;1.82;100.00
62124;BME280;48110;47.532;19.078;2023-02-03T16:25:11;100291.59;;;1.67;100.00
62124;BME280;48110;47.532;19.078;2023-02-03T16:28:17;100276.00;;;1.66;100.00
62124;BME280;48110;47.532;19.078;2023-02-03T16:31:44;100268.50;;;1.61;100.00
62124;BME280;48110;47.532;19.078;2023-02-03T16:35:09;100261.50;;;1.62;100.00
62124;BME280;48110;47.532;19.078;2023-02-03T16:38:35;100258.16;;;1.60;100.00
62124;BME280;48110;47.532;19.078;2023-02-03T16:42:05;100255.44;;;1.61;100.00
62124;BME280;48110;47.532;19.078;2023-02-03T16:45:29;100250.00;;;1.64;100.00
62124;BME280;48110;47.532;19.078;2023-02-03T16:48:55;100235.25;;;1.63;100.00
62124;BME280;48110;47.532;19.078;2023-02-03T16:52:20;100231.69;;;1.64;100.00
62124;BME280;48110;47.532;19.078;2023-02-03T16:55:30;100212.22;;;1.68;100.00
62124;BME280;48110;47.532;19.078;2023-02-03T16:58:38;100199.72;;;1.72;100.00
62124;BME280;48110;47.532;19.078;2023-02-03T17:01:46;100188.91;;;1.77;100.00
62124;BME280;48110;47.532;19.078;2023-02-03T17:04:51;100181.91;;;1.77;100.00
62124;BME280;48110;47.532;19.078;2023-02-03T17:07:58;100178.69;;;1.85;100.00
62124;BME280;48110;47.532;19.078;2023-02-03T17:11:14;100169.34;;;1.93;100.00
62124;BME280;48110;47.532;19.078;2023-02-03T17:14:20;100145.06;;;2.13;100.00
62124;BME280;48110;47.532;19.078;2023-02-03T17:17:29;100149.94;;;2.18;100.00
62124;BME280;48110;47.532;19.078;2023-02-03T17:20:38;100138.97;;;2.35;100.00
62124;BME280;48110;47.532;19.078;2023-02-03T17:23:45;100138.63;;;2.40;100.00
62124;BME280;48110;47.532;19.078;2023-02-03T17:26:53;100135.25;;;2.49;100.00
62124;BME280;48110;47.532;19.078;2023-02-03T17:30:04;100107.12;;;2.62;100.00
62124;BME280;48110;47.532;19.078;2023-02-03T17:33:15;100108.50;;;2.77;100.00
62124;BME280;48110;47.532;19.078;2023-02-03T17:36:23;100108.28;;;2.80;100.00
62124;BME280;48110;47.532;19.078;2023-02-03T17:39:29;100115.63;;;2.86;100.00
62124;BME280;48110;47.532;19.078;2023-02-03T17:42:53;100109.13;;;3.01;100.00
62124;BME280;48110;47.532;19.078;2023-02-03T17:46:18;100085.44;;;3.03;100.00
62124;BME280;48110;47.532;19.078;2023-02-03T17:49:42;100095.25;;;3.11;100.00
62124;BME280;48110;47.532;19.078;2023-02-03T17:53:06;100095.31;;;3.20;100.00
62124;BME280;48110;47.532;19.078;2023-02-03T17:56:15;100095.59;;;3.38;100.00
62124;BME280;48110;47.532;19.078;2023-02-03T17:59:22;100090.97;;;3.51;100.00
62124;BME280;48110;47.532;19.078;2023-02-03T18:02:28;100081.81;;;3.66;100.00
62124;BME280;48110;47.532;19.078;2023-02-03T18:05:37;100099.38;;;3.75;100.00
62124;BME280;48110;47.532;19.078;2023-02-03T18:08:47;100089.31;;;3.80;100.00
62124;BME280;48110;47.532;19.078;2023-02-03T18:11:55;100082.97;;;3.83;100.00
62124;BME280;48110;47.532;19.078;2023-02-03T18:15:06;100081.37;;;3.91;100.00
62124;BME280;48110;47.532;19.078;2023-02-03T18:18:16;100065.03;;;3.88;100.00
62124;BME280;48110;47.532;19.078;2023-02-03T18:21:24;100056.59;;;3.84;100.00
62124;BME280;48110;47.532;19.078;2023-02-03T18:24:32;100053.66;;;3.78;100.00
62124;BME280;48110;47.532;19.078;2023-02-03T18:27:40;100041.78;;;3.74;100.00
62124;BME280;48110;47.532;19.078;2023-02-03T18:30:50;100034.63;;;3.76;100.00
62124;BME280;48110;47.532;19.078;2023-02-03T18:34:02;100033.59;;;3.58;100.00